Airfield :
LOGIN :

Register | Disclaimer

   EN    FR    IT 

 










Legend :    VFR   Marginal VFR   IFR   Intensive IFR   Very Intensive IFR
Visi :
Ceiling :
>= 8 km
>= 3000ft
5 to 8 km
1000 to 3000 ft
1500m to 5 km
500 to 1000 ft
800 to 1500m
200 to 500 ft
< 800m
< 200 ft
Symbols :   Thunderstorms  Fog  Heavy snow  Heavy precipitations  Wind > 20 kt
SIGMETs :     Misc.  Thunderstorms  Icing  Turbulence  Mountain Waves  Volcanic Ashes






- Airport Elevation : 1470 ft


LSMD - Dubendorf Military

CURRENT METAR :
  • 181620Z AUTO 30004KT 260V340 9999NDV R11/P2000D R29/M0050N BKN065 04/M02 Q1027 RMK

EXPIRED METARs :
  • 181550Z AUTO 31003KT 270V350 9999NDV R11/P2000N R29/M0050N BKN059 05/M01 Q1027 RMK
  • 181520Z AUTO 31004KT 9999NDV R11/P2000N R29/M0050N SCT048 BKN057 05/M01 Q1027 RMK
  • 181450Z AUTO 29005KT 260V320 9999NDV R11/P2000D R29/M0050N SCT050 BKN066 06/M01 Q1027 RMK
  • 181420Z AUTO 29007KT 260V330 9999NDV R11/P2000D R29/M0050N FEW039 SCT048 05/M02 Q1027 RMK

Expired Forecast.



MET'MAP, your aeronautical weather chart ! - Copyright ORBIFLY December 2007 - Disclaimer

ORBIFLY MET'MAP TEAM :

Programming & Development : Alexandra Zaïnal
Concept & original design : Baudouin d'Aumeries
Assistance for programming : Marc-Olivier Méhu
Technical & hardware support : Manuel Goepfert

Contact : metmap@orbifly.com




SOURCES & CREDITS :

   NOAA